sensor_id;sensor_type;location;lat;lon;timestamp;P1;durP1;ratioP1;P2;durP2;ratioP2
11042;SDS011;5574;48.786;10.120;2022-08-19T00:01:56;11.80;;;10.70;;
11042;SDS011;5574;48.786;10.120;2022-08-19T00:04:26;12.88;;;11.38;;
11042;SDS011;5574;48.786;10.120;2022-08-19T00:06:54;11.95;;;10.95;;
11042;SDS011;5574;48.786;10.120;2022-08-19T00:09:21;11.00;;;10.10;;
11042;SDS011;5574;48.786;10.120;2022-08-19T00:11:49;11.02;;;10.13;;
11042;SDS011;5574;48.786;10.120;2022-08-19T00:14:17;12.20;;;11.10;;
11042;SDS011;5574;48.786;10.120;2022-08-19T00:16:45;11.95;;;10.85;;
11042;SDS011;5574;48.786;10.120;2022-08-19T00:19:12;11.80;;;10.80;;
11042;SDS011;5574;48.786;10.120;2022-08-19T00:21:41;13.20;;;12.00;;
11042;SDS011;5574;48.786;10.120;2022-08-19T00:24:08;12.27;;;11.18;;
11042;SDS011;5574;48.786;10.120;2022-08-19T00:26:37;12.68;;;11.57;;
11042;SDS011;5574;48.786;10.120;2022-08-19T00:29:04;13.13;;;12.02;;
11042;SDS011;5574;48.786;10.120;2022-08-19T00:31:32;13.50;;;12.30;;
11042;SDS011;5574;48.786;10.120;2022-08-19T00:34:00;13.73;;;12.63;;
11042;SDS011;5574;48.786;10.120;2022-08-19T00:36:28;13.25;;;12.15;;
11042;SDS011;5574;48.786;10.120;2022-08-19T00:38:56;13.75;;;12.65;;
11042;SDS011;5574;48.786;10.120;2022-08-19T00:41:24;13.50;;;12.30;;
11042;SDS011;5574;48.786;10.120;2022-08-19T00:44:01;15.35;;;14.05;;
11042;SDS011;5574;48.786;10.120;2022-08-19T00:46:30;14.98;;;13.60;;
11042;SDS011;5574;48.786;10.120;2022-08-19T00:48:58;15.63;;;14.23;;
11042;SDS011;5574;48.786;10.120;2022-08-19T00:51:27;15.75;;;14.18;;
11042;SDS011;5574;48.786;10.120;2022-08-19T00:53:58;16.02;;;14.52;;
11042;SDS011;5574;48.786;10.120;2022-08-19T00:56:26;15.77;;;14.27;;
11042;SDS011;5574;48.786;10.120;2022-08-19T00:58:53;16.33;;;14.70;;
11042;SDS011;5574;48.786;10.120;2022-08-19T01:01:22;16.05;;;14.65;;
11042;SDS011;5574;48.786;10.120;2022-08-19T01:03:49;15.90;;;14.43;;
11042;SDS011;5574;48.786;10.120;2022-08-19T01:06:15;15.27;;;13.77;;
11042;SDS011;5574;48.786;10.120;2022-08-19T01:08:42;15.65;;;14.25;;
11042;SDS011;5574;48.786;10.120;2022-08-19T01:11:10;17.25;;;15.75;;
11042;SDS011;5574;48.786;10.120;2022-08-19T01:13:38;17.27;;;15.68;;
11042;SDS011;5574;48.786;10.120;2022-08-19T01:16:06;17.48;;;15.95;;
11042;SDS011;5574;48.786;10.120;2022-08-19T01:18:35;17.75;;;15.98;;
11042;SDS011;5574;48.786;10.120;2022-08-19T01:21:08;17.52;;;15.93;;
11042;SDS011;5574;48.786;10.120;2022-08-19T01:23:42;17.45;;;15.85;;
11042;SDS011;5574;48.786;10.120;2022-08-19T01:26:09;17.33;;;15.80;;
11042;SDS011;5574;48.786;10.120;2022-08-19T01:28:39;17.13;;;15.52;;
11042;SDS011;5574;48.786;10.120;2022-08-19T01:31:08;16.98;;;15.45;;
11042;SDS011;5574;48.786;10.120;2022-08-19T01:33:38;16.85;;;15.38;;
11042;SDS011;5574;48.786;10.120;2022-08-19T01:36:08;18.25;;;16.65;;
11042;SDS011;5574;48.786;10.120;2022-08-19T01:38:38;16.85;;;15.27;;
11042;SDS011;5574;48.786;10.120;2022-08-19T01:41:08;17.52;;;15.98;;
11042;SDS011;5574;48.786;10.120;2022-08-19T01:43:35;17.50;;;15.90;;
11042;SDS011;5574;48.786;10.120;2022-08-19T01:46:02;17.95;;;16.35;;
11042;SDS011;5574;48.786;10.120;2022-08-19T01:48:32;17.05;;;15.43;;
11042;SDS011;5574;48.786;10.120;2022-08-19T01:51:00;17.30;;;15.70;;
11042;SDS011;5574;48.786;10.120;2022-08-19T01:53:27;17.80;;;16.30;;
11042;SDS011;5574;48.786;10.120;2022-08-19T01:55:54;17.77;;;16.23;;
11042;SDS011;5574;48.786;10.120;2022-08-19T01:58:23;16.95;;;15.45;;
11042;SDS011;5574;48.786;10.120;2022-08-19T02:00:54;17.33;;;15.73;;
11042;SDS011;5574;48.786;10.120;2022-08-19T02:03:20;17.33;;;15.73;;
11042;SDS011;5574;48.786;10.120;2022-08-19T02:05:47;18.00;;;16.30;;
11042;SDS011;5574;48.786;10.120;2022-08-19T02:08:19;18.00;;;16.33;;
11042;SDS011;5574;48.786;10.120;2022-08-19T02:10:46;17.42;;;15.85;;
11042;SDS011;5574;48.786;10.120;2022-08-19T02:13:13;17.20;;;15.52;;
11042;SDS011;5574;48.786;10.120;2022-08-19T02:15:41;17.83;;;16.23;;
11042;SDS011;5574;48.786;10.120;2022-08-19T02:18:07;15.60;;;14.25;;
11042;SDS011;5574;48.786;10.120;2022-08-19T02:20:35;17.65;;;15.95;;
11042;SDS011;5574;48.786;10.120;2022-08-19T02:23:03;17.85;;;16.35;;
11042;SDS011;5574;48.786;10.120;2022-08-19T02:25:30;17.20;;;15.52;;
11042;SDS011;5574;48.786;10.120;2022-08-19T02:27:57;18.38;;;16.67;;
11042;SDS011;5574;48.786;10.120;2022-08-19T02:30:24;18.08;;;16.35;;
11042;SDS011;5574;48.786;10.120;2022-08-19T02:32:52;18.10;;;16.40;;
11042;SDS011;5574;48.786;10.120;2022-08-19T02:35:19;17.60;;;16.00;;
11042;SDS011;5574;48.786;10.120;2022-08-19T02:37:46;17.25;;;15.68;;
11042;SDS011;5574;48.786;10.120;2022-08-19T02:40:31;18.10;;;16.30;;
11042;SDS011;5574;48.786;10.120;2022-08-19T02:42:59;19.30;;;17.50;;
11042;SDS011;5574;48.786;10.120;2022-08-19T02:45:26;18.48;;;16.85;;
11042;SDS011;5574;48.786;10.120;2022-08-19T02:47:54;18.42;;;16.67;;
11042;SDS011;5574;48.786;10.120;2022-08-19T02:50:21;18.13;;;16.50;;
11042;SDS011;5574;48.786;10.120;2022-08-19T02:52:48;18.33;;;16.52;;
11042;SDS011;5574;48.786;10.120;2022-08-19T02:55:15;18.85;;;17.05;;
11042;SDS011;5574;48.786;10.120;2022-08-19T02:57:41;19.38;;;17.50;;
11042;SDS011;5574;48.786;10.120;2022-08-19T03:00:08;18.90;;;17.15;;
11042;SDS011;5574;48.786;10.120;2022-08-19T03:02:37;19.40;;;17.40;;
11042;SDS011;5574;48.786;10.120;2022-08-19T03:05:06;18.38;;;16.55;;
11042;SDS011;5574;48.786;10.120;2022-08-19T03:07:34;19.13;;;17.38;;
11042;SDS011;5574;48.786;10.120;2022-08-19T03:10:01;17.92;;;16.33;;
11042;SDS011;5574;48.786;10.120;2022-08-19T03:12:28;17.73;;;16.13;;
11042;SDS011;5574;48.786;10.120;2022-08-19T03:14:54;18.52;;;16.70;;
11042;SDS011;5574;48.786;10.120;2022-08-19T03:17:21;17.48;;;15.88;;
11042;SDS011;5574;48.786;10.120;2022-08-19T03:19:48;18.25;;;16.45;;
11042;SDS011;5574;48.786;10.120;2022-08-19T03:22:16;17.77;;;16.10;;
11042;SDS011;5574;48.786;10.120;2022-08-19T03:24:43;18.13;;;16.40;;
11042;SDS011;5574;48.786;10.120;2022-08-19T03:27:09;18.60;;;16.77;;
11042;SDS011;5574;48.786;10.120;2022-08-19T03:29:37;18.80;;;17.02;;
11042;SDS011;5574;48.786;10.120;2022-08-19T03:32:04;18.83;;;17.00;;
11042;SDS011;5574;48.786;10.120;2022-08-19T03:34:32;19.73;;;17.88;;
11042;SDS011;5574;48.786;10.120;2022-08-19T03:37:03;19.55;;;17.73;;
11042;SDS011;5574;48.786;10.120;2022-08-19T03:39:33;18.30;;;16.60;;
11042;SDS011;5574;48.786;10.120;2022-08-19T03:42:01;18.67;;;17.05;;
11042;SDS011;5574;48.786;10.120;2022-08-19T03:44:28;17.42;;;15.93;;
11042;SDS011;5574;48.786;10.120;2022-08-19T03:46:58;18.13;;;16.33;;
11042;SDS011;5574;48.786;10.120;2022-08-19T03:49:26;17.98;;;16.33;;
11042;SDS011;5574;48.786;10.120;2022-08-19T03:51:55;17.20;;;15.63;;
11042;SDS011;5574;48.786;10.120;2022-08-19T03:54:25;18.05;;;16.45;;
11042;SDS011;5574;48.786;10.120;2022-08-19T03:56:54;18.50;;;16.80;;
11042;SDS011;5574;48.786;10.120;2022-08-19T03:59:23;17.80;;;16.15;;
11042;SDS011;5574;48.786;10.120;2022-08-19T04:01:53;17.83;;;16.15;;
11042;SDS011;5574;48.786;10.120;2022-08-19T04:04:21;19.38;;;17.67;;
11042;SDS011;5574;48.786;10.120;2022-08-19T04:06:48;18.15;;;16.48;;
11042;SDS011;5574;48.786;10.120;2022-08-19T04:09:16;18.30;;;16.60;;
11042;SDS011;5574;48.786;10.120;2022-08-19T04:11:44;18.30;;;16.60;;
11042;SDS011;5574;48.786;10.120;2022-08-19T04:14:16;18.38;;;16.67;;
11042;SDS011;5574;48.786;10.120;2022-08-19T04:16:45;19.38;;;17.67;;
11042;SDS011;5574;48.786;10.120;2022-08-19T04:19:13;19.40;;;17.55;;
11042;SDS011;5574;48.786;10.120;2022-08-19T04:21:42;19.10;;;17.20;;
11042;SDS011;5574;48.786;10.120;2022-08-19T04:24:10;20.00;;;17.85;;
11042;SDS011;5574;48.786;10.120;2022-08-19T04:26:37;19.70;;;17.90;;
11042;SDS011;5574;48.786;10.120;2022-08-19T04:29:05;19.38;;;17.58;;
11042;SDS011;5574;48.786;10.120;2022-08-19T04:31:34;20.10;;;18.20;;
11042;SDS011;5574;48.786;10.120;2022-08-19T04:34:02;20.65;;;18.55;;
11042;SDS011;5574;48.786;10.120;2022-08-19T04:36:31;19.65;;;17.73;;
11042;SDS011;5574;48.786;10.120;2022-08-19T04:39:00;20.25;;;18.30;;
11042;SDS011;5574;48.786;10.120;2022-08-19T04:41:30;19.23;;;17.42;;
11042;SDS011;5574;48.786;10.120;2022-08-19T04:44:10;20.67;;;18.67;;
11042;SDS011;5574;48.786;10.120;2022-08-19T04:46:39;20.48;;;18.33;;
11042;SDS011;5574;48.786;10.120;2022-08-19T04:49:06;20.48;;;18.58;;
11042;SDS011;5574;48.786;10.120;2022-08-19T04:51:34;20.50;;;18.50;;
11042;SDS011;5574;48.786;10.120;2022-08-19T04:54:02;20.33;;;18.33;;
11042;SDS011;5574;48.786;10.120;2022-08-19T04:56:30;19.70;;;17.70;;
11042;SDS011;5574;48.786;10.120;2022-08-19T04:58:57;20.60;;;18.60;;
11042;SDS011;5574;48.786;10.120;2022-08-19T05:01:28;21.00;;;18.90;;
11042;SDS011;5574;48.786;10.120;2022-08-19T05:03:57;20.63;;;18.63;;
11042;SDS011;5574;48.786;10.120;2022-08-19T05:06:25;20.27;;;18.27;;
11042;SDS011;5574;48.786;10.120;2022-08-19T05:08:53;19.35;;;17.55;;
11042;SDS011;5574;48.786;10.120;2022-08-19T05:11:22;20.50;;;18.40;;
11042;SDS011;5574;48.786;10.120;2022-08-19T05:13:51;20.77;;;18.67;;
11042;SDS011;5574;48.786;10.120;2022-08-19T05:16:18;20.20;;;18.25;;
11042;SDS011;5574;48.786;10.120;2022-08-19T05:18:47;19.90;;;18.05;;
11042;SDS011;5574;48.786;10.120;2022-08-19T05:21:33;20.50;;;18.48;;
11042;SDS011;5574;48.786;10.120;2022-08-19T05:24:18;21.08;;;19.08;;
11042;SDS011;5574;48.786;10.120;2022-08-19T05:26:47;20.05;;;18.02;;
11042;SDS011;5574;48.786;10.120;2022-08-19T05:29:16;19.98;;;18.08;;
11042;SDS011;5574;48.786;10.120;2022-08-19T05:31:45;21.05;;;19.05;;
11042;SDS011;5574;48.786;10.120;2022-08-19T05:34:14;20.58;;;18.58;;
11042;SDS011;5574;48.786;10.120;2022-08-19T05:36:43;20.77;;;18.77;;
11042;SDS011;5574;48.786;10.120;2022-08-19T05:39:11;20.58;;;18.58;;
11042;SDS011;5574;48.786;10.120;2022-08-19T05:41:41;20.73;;;18.75;;
11042;SDS011;5574;48.786;10.120;2022-08-19T05:44:07;20.50;;;18.50;;
11042;SDS011;5574;48.786;10.120;2022-08-19T05:46:35;19.67;;;17.73;;
11042;SDS011;5574;48.786;10.120;2022-08-19T05:49:02;21.45;;;19.30;;
11042;SDS011;5574;48.786;10.120;2022-08-19T05:51:31;21.10;;;19.00;;
11042;SDS011;5574;48.786;10.120;2022-08-19T05:54:00;20.67;;;18.58;;
11042;SDS011;5574;48.786;10.120;2022-08-19T05:56:27;21.80;;;19.60;;
11042;SDS011;5574;48.786;10.120;2022-08-19T05:58:55;21.10;;;19.00;;
11042;SDS011;5574;48.786;10.120;2022-08-19T06:01:23;21.02;;;18.98;;
11042;SDS011;5574;48.786;10.120;2022-08-19T06:03:51;21.00;;;18.40;;
11042;SDS011;5574;48.786;10.120;2022-08-19T06:06:19;19.80;;;17.98;;
11042;SDS011;5574;48.786;10.120;2022-08-19T06:08:46;19.95;;;17.95;;
11042;SDS011;5574;48.786;10.120;2022-08-19T06:11:17;20.35;;;18.35;;
11042;SDS011;5574;48.786;10.120;2022-08-19T06:13:47;19.77;;;17.88;;
11042;SDS011;5574;48.786;10.120;2022-08-19T06:16:17;18.63;;;16.73;;
11042;SDS011;5574;48.786;10.120;2022-08-19T06:18:48;21.33;;;19.15;;
11042;SDS011;5574;48.786;10.120;2022-08-19T06:21:17;22.15;;;19.90;;
11042;SDS011;5574;48.786;10.120;2022-08-19T06:23:44;20.30;;;18.20;;
11042;SDS011;5574;48.786;10.120;2022-08-19T06:26:12;20.88;;;18.80;;
11042;SDS011;5574;48.786;10.120;2022-08-19T06:28:40;20.38;;;18.42;;
11042;SDS011;5574;48.786;10.120;2022-08-19T06:31:11;21.05;;;18.95;;
11042;SDS011;5574;48.786;10.120;2022-08-19T06:33:39;20.77;;;18.77;;
11042;SDS011;5574;48.786;10.120;2022-08-19T06:36:07;21.00;;;18.95;;
11042;SDS011;5574;48.786;10.120;2022-08-19T06:38:34;20.88;;;18.65;;
11042;SDS011;5574;48.786;10.120;2022-08-19T06:41:01;20.75;;;18.55;;
11042;SDS011;5574;48.786;10.120;2022-08-19T06:43:29;19.83;;;17.92;;
11042;SDS011;5574;48.786;10.120;2022-08-19T06:45:57;20.55;;;18.38;;
11042;SDS011;5574;48.786;10.120;2022-08-19T06:48:26;20.30;;;18.23;;
11042;SDS011;5574;48.786;10.120;2022-08-19T06:50:52;21.63;;;19.55;;
11042;SDS011;5574;48.786;10.120;2022-08-19T06:53:19;21.58;;;19.48;;
11042;SDS011;5574;48.786;10.120;2022-08-19T06:55:46;23.02;;;20.42;;
11042;SDS011;5574;48.786;10.120;2022-08-19T06:58:12;22.48;;;20.38;;
11042;SDS011;5574;48.786;10.120;2022-08-19T07:00:39;21.38;;;19.17;;
11042;SDS011;5574;48.786;10.120;2022-08-19T07:03:07;22.05;;;19.75;;
11042;SDS011;5574;48.786;10.120;2022-08-19T07:05:37;20.90;;;18.77;;
11042;SDS011;5574;48.786;10.120;2022-08-19T07:08:05;20.90;;;18.90;;
11042;SDS011;5574;48.786;10.120;2022-08-19T07:10:32;21.35;;;19.15;;
11042;SDS011;5574;48.786;10.120;2022-08-19T07:13:01;20.73;;;18.63;;
11042;SDS011;5574;48.786;10.120;2022-08-19T07:15:28;21.95;;;19.67;;
11042;SDS011;5574;48.786;10.120;2022-08-19T07:17:55;20.88;;;18.60;;
11042;SDS011;5574;48.786;10.120;2022-08-19T07:20:23;20.67;;;18.67;;
11042;SDS011;5574;48.786;10.120;2022-08-19T07:22:50;21.00;;;18.83;;
11042;SDS011;5574;48.786;10.120;2022-08-19T07:25:16;21.17;;;18.95;;
11042;SDS011;5574;48.786;10.120;2022-08-19T07:27:45;20.52;;;18.50;;
11042;SDS011;5574;48.786;10.120;2022-08-19T07:30:15;21.13;;;18.98;;
11042;SDS011;5574;48.786;10.120;2022-08-19T07:32:42;21.17;;;18.95;;
11042;SDS011;5574;48.786;10.120;2022-08-19T07:35:09;20.50;;;18.52;;
11042;SDS011;5574;48.786;10.120;2022-08-19T07:37:37;20.63;;;18.63;;
11042;SDS011;5574;48.786;10.120;2022-08-19T07:40:09;21.25;;;19.17;;
11042;SDS011;5574;48.786;10.120;2022-08-19T07:42:36;21.92;;;19.63;;
11042;SDS011;5574;48.786;10.120;2022-08-19T07:45:03;21.42;;;19.20;;
11042;SDS011;5574;48.786;10.120;2022-08-19T07:47:31;21.23;;;19.08;;
11042;SDS011;5574;48.786;10.120;2022-08-19T07:49:57;21.98;;;19.67;;
11042;SDS011;5574;48.786;10.120;2022-08-19T07:52:24;21.42;;;19.33;;
11042;SDS011;5574;48.786;10.120;2022-08-19T07:54:52;21.10;;;18.85;;
11042;SDS011;5574;48.786;10.120;2022-08-19T07:57:19;22.05;;;19.65;;
11042;SDS011;5574;48.786;10.120;2022-08-19T07:59:45;19.83;;;17.90;;
11042;SDS011;5574;48.786;10.120;2022-08-19T08:02:12;22.60;;;20.27;;
11042;SDS011;5574;48.786;10.120;2022-08-19T08:04:39;21.60;;;19.45;;
11042;SDS011;5574;48.786;10.120;2022-08-19T08:07:23;21.75;;;19.55;;
11042;SDS011;5574;48.786;10.120;2022-08-19T08:10:08;20.45;;;18.35;;
11042;SDS011;5574;48.786;10.120;2022-08-19T08:12:36;21.10;;;18.95;;
11042;SDS011;5574;48.786;10.120;2022-08-19T08:15:07;21.10;;;18.92;;
11042;SDS011;5574;48.786;10.120;2022-08-19T08:17:36;21.17;;;19.08;;
11042;SDS011;5574;48.786;10.120;2022-08-19T08:20:04;21.10;;;18.90;;
11042;SDS011;5574;48.786;10.120;2022-08-19T08:22:32;22.15;;;19.92;;
11042;SDS011;5574;48.786;10.120;2022-08-19T08:25:22;21.90;;;19.58;;
11042;SDS011;5574;48.786;10.120;2022-08-19T08:27:50;20.38;;;18.27;;
11042;SDS011;5574;48.786;10.120;2022-08-19T08:30:20;23.05;;;20.65;;
11042;SDS011;5574;48.786;10.120;2022-08-19T08:32:49;22.85;;;20.55;;
11042;SDS011;5574;48.786;10.120;2022-08-19T08:35:18;21.30;;;19.10;;
11042;SDS011;5574;48.786;10.120;2022-08-19T08:37:47;21.20;;;19.08;;
11042;SDS011;5574;48.786;10.120;2022-08-19T08:40:17;22.02;;;19.85;;
11042;SDS011;5574;48.786;10.120;2022-08-19T08:42:49;20.95;;;18.90;;
11042;SDS011;5574;48.786;10.120;2022-08-19T08:45:23;21.58;;;19.33;;
11042;SDS011;5574;48.786;10.120;2022-08-19T08:47:51;22.02;;;19.73;;
11042;SDS011;5574;48.786;10.120;2022-08-19T08:50:23;22.75;;;20.30;;
11042;SDS011;5574;48.786;10.120;2022-08-19T08:52:56;22.33;;;20.02;;
11042;SDS011;5574;48.786;10.120;2022-08-19T08:55:26;21.65;;;19.52;;
11042;SDS011;5574;48.786;10.120;2022-08-19T08:57:56;22.42;;;20.05;;
11042;SDS011;5574;48.786;10.120;2022-08-19T09:00:28;23.45;;;21.05;;
11042;SDS011;5574;48.786;10.120;2022-08-19T09:02:59;23.08;;;20.77;;
11042;SDS011;5574;48.786;10.120;2022-08-19T09:05:35;22.77;;;19.65;;
11042;SDS011;5574;48.786;10.120;2022-08-19T09:08:10;23.80;;;21.30;;
11042;SDS011;5574;48.786;10.120;2022-08-19T09:10:49;23.05;;;20.65;;
11042;SDS011;5574;48.786;10.120;2022-08-19T09:13:20;22.67;;;20.45;;
11042;SDS011;5574;48.786;10.120;2022-08-19T09:15:56;23.70;;;21.17;;
11042;SDS011;5574;48.786;10.120;2022-08-19T09:18:36;25.27;;;20.60;;
11042;SDS011;5574;48.786;10.120;2022-08-19T09:21:05;23.48;;;20.98;;
11042;SDS011;5574;48.786;10.120;2022-08-19T09:23:33;23.52;;;21.05;;
11042;SDS011;5574;48.786;10.120;2022-08-19T09:26:04;23.50;;;21.00;;
11042;SDS011;5574;48.786;10.120;2022-08-19T09:28:33;22.80;;;20.48;;
11042;SDS011;5574;48.786;10.120;2022-08-19T09:31:02;23.75;;;21.25;;
11042;SDS011;5574;48.786;10.120;2022-08-19T09:33:29;23.73;;;21.08;;
11042;SDS011;5574;48.786;10.120;2022-08-19T09:36:01;22.60;;;20.30;;
11042;SDS011;5574;48.786;10.120;2022-08-19T09:38:32;24.60;;;22.00;;
11042;SDS011;5574;48.786;10.120;2022-08-19T09:41:03;23.52;;;21.13;;
11042;SDS011;5574;48.786;10.120;2022-08-19T09:43:31;23.20;;;20.65;;
11042;SDS011;5574;48.786;10.120;2022-08-19T09:45:58;24.80;;;22.15;;
11042;SDS011;5574;48.786;10.120;2022-08-19T09:48:25;23.60;;;21.17;;
11042;SDS011;5574;48.786;10.120;2022-08-19T09:50:52;23.08;;;20.75;;
11042;SDS011;5574;48.786;10.120;2022-08-19T09:53:19;22.42;;;20.00;;
11042;SDS011;5574;48.786;10.120;2022-08-19T09:55:47;23.73;;;19.48;;
11042;SDS011;5574;48.786;10.120;2022-08-19T09:58:15;21.70;;;19.50;;
11042;SDS011;5574;48.786;10.120;2022-08-19T10:00:42;22.33;;;20.13;;
11042;SDS011;5574;48.786;10.120;2022-08-19T10:03:08;23.73;;;20.90;;
11042;SDS011;5574;48.786;10.120;2022-08-19T10:05:36;22.52;;;20.33;;
11042;SDS011;5574;48.786;10.120;2022-08-19T10:08:15;23.20;;;20.70;;
11042;SDS011;5574;48.786;10.120;2022-08-19T10:10:44;22.92;;;20.33;;
11042;SDS011;5574;48.786;10.120;2022-08-19T10:13:12;23.52;;;20.67;;
11042;SDS011;5574;48.786;10.120;2022-08-19T10:15:42;22.98;;;20.58;;
11042;SDS011;5574;48.786;10.120;2022-08-19T10:18:09;21.42;;;19.23;;
11042;SDS011;5574;48.786;10.120;2022-08-19T10:20:36;22.65;;;20.27;;
11042;SDS011;5574;48.786;10.120;2022-08-19T10:23:03;21.83;;;19.52;;
11042;SDS011;5574;48.786;10.120;2022-08-19T10:25:31;22.17;;;19.88;;
11042;SDS011;5574;48.786;10.120;2022-08-19T10:27:59;20.95;;;18.75;;
11042;SDS011;5574;48.786;10.120;2022-08-19T10:30:26;21.85;;;19.45;;
11042;SDS011;5574;48.786;10.120;2022-08-19T10:32:54;22.65;;;20.38;;
11042;SDS011;5574;48.786;10.120;2022-08-19T10:35:21;22.52;;;20.15;;
11042;SDS011;5574;48.786;10.120;2022-08-19T10:37:48;22.33;;;20.10;;
11042;SDS011;5574;48.786;10.120;2022-08-19T10:40:15;23.33;;;20.90;;
11042;SDS011;5574;48.786;10.120;2022-08-19T10:42:42;22.13;;;19.83;;
11042;SDS011;5574;48.786;10.120;2022-08-19T10:45:09;22.08;;;19.85;;
11042;SDS011;5574;48.786;10.120;2022-08-19T10:47:37;23.77;;;21.02;;
11042;SDS011;5574;48.786;10.120;2022-08-19T10:50:06;21.98;;;19.73;;
11042;SDS011;5574;48.786;10.120;2022-08-19T10:52:51;22.52;;;20.10;;
11042;SDS011;5574;48.786;10.120;2022-08-19T10:55:18;22.98;;;20.58;;
11042;SDS011;5574;48.786;10.120;2022-08-19T10:58:04;22.33;;;20.13;;
11042;SDS011;5574;48.786;10.120;2022-08-19T11:00:36;21.10;;;18.90;;
11042;SDS011;5574;48.786;10.120;2022-08-19T11:03:03;21.08;;;18.95;;
11042;SDS011;5574;48.786;10.120;2022-08-19T11:05:31;21.58;;;19.27;;
11042;SDS011;5574;48.786;10.120;2022-08-19T11:07:57;23.92;;;21.45;;
11042;SDS011;5574;48.786;10.120;2022-08-19T11:10:24;20.55;;;18.50;;
11042;SDS011;5574;48.786;10.120;2022-08-19T11:12:51;22.08;;;19.83;;
11042;SDS011;5574;48.786;10.120;2022-08-19T11:15:19;21.95;;;19.70;;
11042;SDS011;5574;48.786;10.120;2022-08-19T11:17:46;23.88;;;21.33;;
11042;SDS011;5574;48.786;10.120;2022-08-19T11:20:13;23.05;;;20.65;;
11042;SDS011;5574;48.786;10.120;2022-08-19T11:22:42;23.10;;;20.60;;
11042;SDS011;5574;48.786;10.120;2022-08-19T11:25:09;23.23;;;20.90;;
11042;SDS011;5574;48.786;10.120;2022-08-19T11:27:37;22.52;;;20.15;;
11042;SDS011;5574;48.786;10.120;2022-08-19T11:30:07;23.40;;;21.00;;
11042;SDS011;5574;48.786;10.120;2022-08-19T11:32:35;22.98;;;20.63;;
11042;SDS011;5574;48.786;10.120;2022-08-19T11:35:01;21.33;;;19.23;;
11042;SDS011;5574;48.786;10.120;2022-08-19T11:37:28;22.00;;;19.40;;
11042;SDS011;5574;48.786;10.120;2022-08-19T11:39:56;22.25;;;19.95;;
11042;SDS011;5574;48.786;10.120;2022-08-19T11:42:23;20.85;;;18.85;;
11042;SDS011;5574;48.786;10.120;2022-08-19T11:45:22;20.42;;;18.40;;
11042;SDS011;5574;48.786;10.120;2022-08-19T11:47:49;17.67;;;16.08;;
11042;SDS011;5574;48.786;10.120;2022-08-19T11:50:16;16.50;;;14.90;;
11042;SDS011;5574;48.786;10.120;2022-08-19T11:52:43;16.08;;;14.35;;
11042;SDS011;5574;48.786;10.120;2022-08-19T11:55:12;14.73;;;13.32;;
11042;SDS011;5574;48.786;10.120;2022-08-19T11:57:39;14.38;;;13.07;;
11042;SDS011;5574;48.786;10.120;2022-08-19T12:00:08;13.70;;;12.30;;
11042;SDS011;5574;48.786;10.120;2022-08-19T12:02:37;11.80;;;10.80;;
11042;SDS011;5574;48.786;10.120;2022-08-19T12:05:04;12.23;;;10.93;;
11042;SDS011;5574;48.786;10.120;2022-08-19T12:07:32;12.15;;;11.05;;
11042;SDS011;5574;48.786;10.120;2022-08-19T12:09:58;13.65;;;12.27;;
11042;SDS011;5574;48.786;10.120;2022-08-19T12:12:27;13.48;;;12.27;;
11042;SDS011;5574;48.786;10.120;2022-08-19T12:14:54;15.00;;;13.55;;
11042;SDS011;5574;48.786;10.120;2022-08-19T12:17:23;14.77;;;13.38;;
11042;SDS011;5574;48.786;10.120;2022-08-19T12:19:50;16.25;;;14.75;;
11042;SDS011;5574;48.786;10.120;2022-08-19T12:22:17;14.23;;;12.82;;
11042;SDS011;5574;48.786;10.120;2022-08-19T12:24:45;15.32;;;13.82;;
11042;SDS011;5574;48.786;10.120;2022-08-19T12:27:13;15.05;;;13.63;;
11042;SDS011;5574;48.786;10.120;2022-08-19T12:29:41;14.43;;;13.02;;
11042;SDS011;5574;48.786;10.120;2022-08-19T12:32:07;17.05;;;15.45;;
11042;SDS011;5574;48.786;10.120;2022-08-19T12:34:35;16.27;;;14.68;;
11042;SDS011;5574;48.786;10.120;2022-08-19T12:37:03;15.70;;;14.20;;
11042;SDS011;5574;48.786;10.120;2022-08-19T12:39:33;16.15;;;14.55;;
11042;SDS011;5574;48.786;10.120;2022-08-19T12:42:01;15.15;;;13.65;;
11042;SDS011;5574;48.786;10.120;2022-08-19T12:44:27;15.90;;;14.38;;
11042;SDS011;5574;48.786;10.120;2022-08-19T12:46:56;15.55;;;13.98;;
11042;SDS011;5574;48.786;10.120;2022-08-19T12:49:23;14.48;;;13.00;;
11042;SDS011;5574;48.786;10.120;2022-08-19T12:51:50;14.30;;;13.00;;
11042;SDS011;5574;48.786;10.120;2022-08-19T12:54:17;13.95;;;12.65;;
11042;SDS011;5574;48.786;10.120;2022-08-19T12:56:43;12.70;;;11.60;;
11042;SDS011;5574;48.786;10.120;2022-08-19T12:59:10;13.57;;;12.38;;
11042;SDS011;5574;48.786;10.120;2022-08-19T13:01:37;13.10;;;11.88;;
11042;SDS011;5574;48.786;10.120;2022-08-19T13:04:05;12.07;;;10.98;;
11042;SDS011;5574;48.786;10.120;2022-08-19T13:06:32;11.07;;;10.07;;
11042;SDS011;5574;48.786;10.120;2022-08-19T13:08:59;10.95;;;10.00;;
11042;SDS011;5574;48.786;10.120;2022-08-19T13:11:26;10.02;;;9.15;;
11042;SDS011;5574;48.786;10.120;2022-08-19T13:13:57;10.02;;;9.13;;
11042;SDS011;5574;48.786;10.120;2022-08-19T13:16:24;9.35;;;8.55;;
11042;SDS011;5574;48.786;10.120;2022-08-19T13:18:52;8.40;;;7.70;;
11042;SDS011;5574;48.786;10.120;2022-08-19T13:21:22;6.97;;;6.47;;
11042;SDS011;5574;48.786;10.120;2022-08-19T13:23:50;6.88;;;6.30;;
11042;SDS011;5574;48.786;10.120;2022-08-19T13:26:17;6.30;;;5.80;;
11042;SDS011;5574;48.786;10.120;2022-08-19T13:28:44;6.00;;;5.50;;
11042;SDS011;5574;48.786;10.120;2022-08-19T13:31:29;5.88;;;5.38;;
11042;SDS011;5574;48.786;10.120;2022-08-19T13:34:16;6.05;;;5.55;;
11042;SDS011;5574;48.786;10.120;2022-08-19T13:36:47;5.72;;;5.22;;
11042;SDS011;5574;48.786;10.120;2022-08-19T13:39:13;5.13;;;4.63;;
11042;SDS011;5574;48.786;10.120;2022-08-19T13:41:43;6.28;;;5.78;;
11042;SDS011;5574;48.786;10.120;2022-08-19T13:44:12;7.20;;;6.60;;
11042;SDS011;5574;48.786;10.120;2022-08-19T13:46:39;7.35;;;6.50;;
11042;SDS011;5574;48.786;10.120;2022-08-19T13:49:09;7.45;;;6.85;;
11042;SDS011;5574;48.786;10.120;2022-08-19T13:51:36;8.13;;;7.32;;
11042;SDS011;5574;48.786;10.120;2022-08-19T13:54:05;8.10;;;7.30;;
11042;SDS011;5574;48.786;10.120;2022-08-19T13:56:33;7.60;;;7.00;;
11042;SDS011;5574;48.786;10.120;2022-08-19T13:59:01;7.85;;;7.15;;
11042;SDS011;5574;48.786;10.120;2022-08-19T14:01:28;8.65;;;7.95;;
11042;SDS011;5574;48.786;10.120;2022-08-19T14:03:55;9.02;;;8.23;;
11042;SDS011;5574;48.786;10.120;2022-08-19T14:06:22;8.68;;;7.82;;
11042;SDS011;5574;48.786;10.120;2022-08-19T14:08:50;9.55;;;8.75;;
11042;SDS011;5574;48.786;10.120;2022-08-19T14:11:18;9.45;;;8.52;;
11042;SDS011;5574;48.786;10.120;2022-08-19T14:13:47;10.05;;;9.05;;
11042;SDS011;5574;48.786;10.120;2022-08-19T14:16:14;9.90;;;9.00;;
11042;SDS011;5574;48.786;10.120;2022-08-19T14:18:41;9.70;;;8.88;;
11042;SDS011;5574;48.786;10.120;2022-08-19T14:21:14;10.40;;;9.40;;
11042;SDS011;5574;48.786;10.120;2022-08-19T14:23:42;10.40;;;9.50;;
11042;SDS011;5574;48.786;10.120;2022-08-19T14:26:10;9.82;;;8.95;;
11042;SDS011;5574;48.786;10.120;2022-08-19T14:28:40;9.82;;;8.95;;
11042;SDS011;5574;48.786;10.120;2022-08-19T14:31:07;9.40;;;8.52;;
11042;SDS011;5574;48.786;10.120;2022-08-19T14:33:33;8.93;;;8.02;;